Time;durP1;ratioP1;P1;durP2;ratioP2;P2;SDS_P1;SDS_P2;PMS_P1;PMS_P2;Temp;Humidity;BMP_temperature;BMP_pressure;BME280_temperature;BME280_humidity;BME280_pressure;Samples;Min_cycle;Max_cycle;Signal;HPM_P1;HPM_P2
2022/06/13 00:01:29;;;;;;;11.25;4.28;;;;;;;17.28;48.78;101993.59;4898753;28;114312;-68
2022/06/13 00:03:57;;;;;;;7.68;3.88;;;;;;;17.25;48.82;101993.78;4899460;28;114074;-68
2022/06/13 00:06:24;;;;;;;7.85;4.32;;;;;;;17.24;48.76;102001.91;4905579;28;124064;-69
2022/06/13 00:08:52;;;;;;;7.20;4.47;;;;;;;17.21;48.70;101997.56;4910612;28;124561;-68
2022/06/13 00:11:22;;;;;;;9.88;4.55;;;;;;;17.19;48.80;101994.09;4909597;28;114579;-68
2022/06/13 00:13:52;;;;;;;10.38;4.22;;;;;;;17.17;48.92;101979.94;4907594;28;113338;-68
2022/06/13 00:16:20;;;;;;;9.40;4.70;;;;;;;17.16;48.92;101972.88;4906840;28;124429;-68
2022/06/13 00:18:48;;;;;;;11.10;4.40;;;;;;;17.14;48.92;101985.47;4907533;28;124182;-68
2022/06/13 00:21:18;;;;;;;11.10;4.25;;;;;;;17.11;49.05;101985.63;4909127;28;115941;-68
2022/06/13 00:23:46;;;;;;;10.27;4.72;;;;;;;17.07;49.16;101984.06;4897107;28;114046;-68
2022/06/13 00:26:14;;;;;;;12.02;4.75;;;;;;;17.05;49.15;101985.97;4911873;28;124434;-68
2022/06/13 00:28:41;;;;;;;11.20;4.57;;;;;;;17.02;49.26;101986.13;4900964;28;123903;-68
2022/06/13 00:31:08;;;;;;;10.57;4.90;;;;;;;17.00;49.07;101982.66;4914999;28;114304;-69
2022/06/13 00:33:35;;;;;;;10.30;4.30;;;;;;;16.96;49.29;101975.75;4900173;28;113903;-68
2022/06/13 00:36:03;;;;;;;10.50;4.40;;;;;;;16.92;49.44;101973.25;4912979;28;123789;-68
2022/06/13 00:38:30;;;;;;;8.98;4.70;;;;;;;16.89;49.60;101970.72;4912147;28;125147;-68
2022/06/13 00:40:57;;;;;;;12.52;4.68;;;;;;;16.84;49.67;101972.78;4912578;28;115019;-68
2022/06/13 00:43:24;;;;;;;9.90;4.40;;;;;;;16.80;49.59;101981.91;4914138;28;113943;-68
2022/06/13 00:45:52;;;;;;;7.55;4.03;;;;;;;16.77;49.77;101982.06;4913244;28;124268;-68
2022/06/13 00:48:26;;;;;;;7.85;4.30;;;;;;;16.75;49.92;101973.25;4911047;28;124173;-68
2022/06/13 00:50:58;;;;;;;8.63;4.20;;;;;;;16.72;49.98;101968.03;4907502;28;114610;-68
2022/06/13 00:53:32;;;;;;;8.30;4.50;;;;;;;16.71;50.26;101963.66;4906203;28;113838;-68
2022/06/13 00:56:03;;;;;;;9.65;4.95;;;;;;;16.71;50.31;101967.19;4912374;28;124079;-68
2022/06/13 00:58:35;;;;;;;12.90;4.93;;;;;;;16.70;50.43;101954.75;4912156;28;124063;-68
2022/06/13 01:01:03;;;;;;;9.07;4.90;;;;;;;16.72;50.47;101957.34;4912930;28;114277;-68
2022/06/13 01:03:32;;;;;;;9.77;4.70;;;;;;;16.71;50.54;101950.28;4914639;28;114156;-68
2022/06/13 01:06:01;;;;;;;10.45;5.15;;;;;;;16.72;50.64;101952.00;4911338;28;123845;-68
2022/06/13 01:08:32;;;;;;;10.10;4.88;;;;;;;16.72;50.72;101962.69;4911491;28;123734;-68
2022/06/13 01:11:17;;;;;;;12.88;5.43;;;;;;;16.71;50.72;101956.50;4913413;28;114211;-68
2022/06/13 01:13:57;;;;;;;9.00;5.32;;;;;;;16.72;50.59;101960.03;4898386;28;114019;-68
2022/06/13 01:17:02;;;;;;;11.10;5.45;;;;;;;16.71;50.74;101956.50;4893022;28;123840;-68
2022/06/13 01:19:47;;;;;;;15.57;5.75;;;;;;;16.71;51.16;101950.28;4893775;28;123861;-68
2022/06/13 01:22:52;;;;;;;10.30;5.70;;;;;;;16.71;50.97;101947.63;4908472;28;114359;-68
2022/06/13 01:25:54;;;;;;;11.93;5.50;;;;;;;16.72;51.22;101941.28;4913099;28;113793;-68
2022/06/13 01:28:21;;;;;;;8.40;5.05;;;;;;;16.76;51.39;101942.84;4899679;28;123888;-68
2022/06/13 01:31:30;;;;;;;13.20;5.53;;;;;;;16.78;51.57;101945.44;4913481;28;123874;-68
2022/06/13 01:34:12;;;;;;;12.70;5.80;;;;;;;16.80;51.68;101948.91;4911910;28;115639;-68
2022/06/13 01:36:42;;;;;;;10.63;5.03;;;;;;;16.82;51.63;101942.59;4912782;28;114236;-68
2022/06/13 01:39:38;;;;;;;11.55;5.50;;;;;;;16.86;51.87;101943.28;4912674;28;122963;-68
2022/06/13 01:42:28;;;;;;;14.65;5.50;;;;;;;16.89;51.65;101948.44;4900741;28;123863;-68
2022/06/13 01:45:14;;;;;;;10.88;5.45;;;;;;;16.92;51.66;101954.50;4909120;28;114022;-68
2022/06/13 01:48:01;;;;;;;11.70;5.45;;;;;;;16.93;51.81;101953.56;4904410;28;114088;-68
2022/06/13 01:50:40;;;;;;;13.18;5.35;;;;;;;16.95;52.03;101942.75;4915553;28;123809;-68
2022/06/13 01:53:19;;;;;;;11.35;5.53;;;;;;;16.99;51.92;101938.09;4913473;28;123731;-68
2022/06/13 01:56:00;;;;;;;11.10;5.03;;;;;;;17.00;52.04;101931.81;4902002;28;114182;-68
2022/06/13 01:58:38;;;;;;;13.07;5.88;;;;;;;17.03;52.23;101939.69;4911090;28;114252;-68
2022/06/13 02:01:17;;;;;;;10.90;5.15;;;;;;;17.08;52.11;101942.97;4911147;28;124158;-68
2022/06/13 02:03:49;;;;;;;9.07;4.40;;;;;;;17.11;52.40;101932.09;4913145;28;123932;-68
2022/06/13 02:06:26;;;;;;;12.35;5.35;;;;;;;17.14;52.31;101937.28;4911521;28;114430;-68
2022/06/13 02:09:01;;;;;;;9.00;4.60;;;;;;;17.18;52.17;101933.50;4904319;28;114059;-68
2022/06/13 02:11:31;;;;;;;7.88;4.97;;;;;;;17.21;52.01;101938.66;4925880;28;123921;-68
2022/06/13 02:14:25;;;;;;;10.95;4.95;;;;;;;17.24;52.04;101938.50;4911174;28;124062;-68
2022/06/13 02:17:22;;;;;;;11.20;5.18;;;;;;;17.27;52.05;101943.69;4890151;28;113113;-68
2022/06/13 02:20:06;;;;;;;10.35;5.20;;;;;;;17.31;52.18;101945.25;4897687;28;113037;-68
2022/06/13 02:22:39;;;;;;;10.20;5.70;;;;;;;17.35;52.11;101945.06;4911075;28;124043;-68
2022/06/13 02:25:15;;;;;;;11.52;5.38;;;;;;;17.36;52.28;101947.66;4911213;28;124320;-68
2022/06/13 02:27:47;;;;;;;8.93;5.35;;;;;;;17.39;52.34;101946.63;4909497;28;115469;-68
2022/06/13 02:30:18;;;;;;;9.63;5.38;;;;;;;17.41;52.29;101955.44;4914023;28;114924;-68
2022/06/13 02:32:53;;;;;;;9.98;5.00;;;;;;;17.41;52.35;101950.09;4910478;28;124092;-68
2022/06/13 02:35:20;;;;;;;10.13;5.13;;;;;;;17.44;52.28;101949.91;4912782;28;123965;-68
2022/06/13 02:38:03;;;;;;;8.63;5.20;;;;;;;17.45;52.38;101935.56;4909956;28;113896;-70
2022/06/13 02:40:37;;;;;;;10.50;5.05;;;;;;;17.48;52.42;101930.03;4906117;28;113909;-67
2022/06/13 02:43:17;;;;;;;11.43;5.07;;;;;;;17.48;52.38;101930.03;4908050;28;123974;-66
2022/06/13 02:45:50;;;;;;;10.88;4.95;;;;;;;17.48;52.21;101913.97;4911418;28;124362;-67
2022/06/13 02:48:23;;;;;;;10.20;5.13;;;;;;;17.48;52.51;101913.97;4909857;28;114296;-67
2022/06/13 02:50:54;;;;;;;10.25;4.85;;;;;;;17.49;52.38;101915.69;4901996;28;113975;-66
2022/06/13 02:53:33;;;;;;;10.18;5.18;;;;;;;17.51;52.41;101925.34;4907159;28;124513;-67
2022/06/13 02:56:26;;;;;;;11.43;4.60;;;;;;;17.52;52.38;101926.25;4911058;28;123937;-67
2022/06/13 02:59:16;;;;;;;10.50;5.15;;;;;;;17.53;52.49;101922.59;4910716;28;114717;-67
2022/06/13 03:01:47;;;;;;;8.90;4.85;;;;;;;17.54;52.38;101929.69;4901953;28;114250;-67
2022/06/13 03:04:25;;;;;;;10.43;4.75;;;;;;;17.54;52.58;101924.31;4893493;28;124752;-67
2022/06/13 03:07:13;;;;;;;10.43;4.80;;;;;;;17.52;52.41;101926.25;4910774;28;124573;-67
2022/06/13 03:09:55;;;;;;;12.38;5.07;;;;;;;17.51;52.39;101908.41;4911653;28;114407;-67
2022/06/13 03:12:35;;;;;;;11.15;5.10;;;;;;;17.52;52.46;101915.53;4899451;28;114065;-67
2022/06/13 03:15:16;;;;;;;10.85;5.07;;;;;;;17.51;52.36;101924.50;4897717;28;124627;-67
2022/06/13 03:17:53;;;;;;;9.32;5.13;;;;;;;17.50;52.46;101917.44;4909457;28;123719;-66
2022/06/13 03:20:33;;;;;;;10.73;4.90;;;;;;;17.49;52.57;101921.03;4904281;28;115300;-67
2022/06/13 03:23:11;;;;;;;8.25;4.70;;;;;;;17.49;52.53;101921.03;4894195;28;113755;-66
2022/06/13 03:25:55;;;;;;;11.30;4.72;;;;;;;17.48;52.56;101924.69;4907292;28;122948;-67
2022/06/13 03:28:28;;;;;;;10.75;5.10;;;;;;;17.49;52.51;101921.91;4897201;28;124061;-67
2022/06/13 03:31:04;;;;;;;9.05;5.47;;;;;;;17.50;52.63;101917.44;4900111;28;113737;-67
2022/06/13 03:33:42;;;;;;;11.27;5.25;;;;;;;17.49;52.64;101921.03;4900823;28;113978;-68
2022/06/13 03:36:34;;;;;;;11.88;5.10;;;;;;;17.48;52.54;101930.03;4902900;28;123052;-67
2022/06/13 03:39:34;;;;;;;13.75;4.97;;;;;;;17.45;52.56;101938.25;4911698;28;124075;-69
2022/06/13 03:42:11;;;;;;;11.27;5.45;;;;;;;17.44;52.75;101940.06;4912400;28;113823;-69
2022/06/13 03:45:04;;;;;;;9.18;4.75;;;;;;;17.44;52.96;101934.72;4910262;28;113861;-69
2022/06/13 03:47:44;;;;;;;12.98;6.22;;;;;;;17.44;52.99;101939.19;4891279;28;123969;-67
2022/06/13 03:50:31;;;;;;;9.80;5.10;;;;;;;17.45;52.61;101940.91;4910054;28;123836;-67
2022/06/13 03:53:06;;;;;;;13.00;5.38;;;;;;;17.44;53.10;101944.53;4898758;28;114261;-67
2022/06/13 03:55:46;;;;;;;13.38;5.97;;;;;;;17.43;53.19;101953.53;4898048;28;114083;-67
2022/06/13 03:58:24;;;;;;;12.45;5.68;;;;;;;17.43;53.10;101937.47;4901362;28;124421;-67
2022/06/13 04:00:58;;;;;;;8.93;4.95;;;;;;;17.43;53.44;101953.53;4895345;28;123721;-67
2022/06/13 04:03:27;;;;;;;11.63;5.38;;;;;;;17.44;53.10;101956.13;4900379;28;114288;-67
2022/06/13 04:06:06;;;;;;;13.00;5.38;;;;;;;17.45;53.37;101948.97;4893833;28;113960;-67
2022/06/13 04:08:37;;;;;;;13.52;5.80;;;;;;;17.46;53.48;101948.00;4908862;28;124194;-67
2022/06/13 04:11:28;;;;;;;11.40;5.70;;;;;;;17.47;53.38;101949.72;4910425;28;123867;-67
2022/06/13 04:13:58;;;;;;;11.02;5.30;;;;;;;17.48;53.47;101946.13;4916051;28;114237;-67
2022/06/13 04:16:38;;;;;;;11.40;5.82;;;;;;;17.49;53.48;101947.81;4910246;28;115067;-67
2022/06/13 04:19:28;;;;;;;10.90;5.50;;;;;;;17.52;53.41;101953.03;4910764;28;124076;-67
2022/06/13 04:22:19;;;;;;;11.30;5.70;;;;;;;17.53;53.39;101960.09;4901689;28;124206;-66
2022/06/13 04:25:14;;;;;;;10.63;5.20;;;;;;;17.54;53.49;101961.84;4911846;28;114470;-67
2022/06/13 04:27:50;;;;;;;12.48;5.82;;;;;;;17.56;53.55;101976.00;4915226;28;113392;-68
2022/06/13 04:30:21;;;;;;;10.25;5.50;;;;;;;17.58;53.62;101968.75;4904236;28;124003;-68
2022/06/13 04:33:17;;;;;;;10.00;5.75;;;;;;;17.60;53.71;101976.69;4904524;28;124573;-67
2022/06/13 04:35:48;;;;;;;15.20;6.35;;;;;;;17.64;53.60;101972.88;4891741;28;113240;-67
2022/06/13 04:38:19;;;;;;;11.65;5.88;;;;;;;17.66;53.58;101981.69;4908077;28;114905;-67
2022/06/13 04:40:54;;;;;;;14.30;6.50;;;;;;;17.67;53.70;101978.94;4911838;28;124246;-68
2022/06/13 04:43:26;;;;;;;13.98;6.00;;;;;;;17.68;53.82;101983.31;4924896;28;123049;-68
2022/06/13 04:46:12;;;;;;;12.15;6.45;;;;;;;17.71;54.00;101977.81;4909841;28;114089;-68
2022/06/13 04:48:42;;;;;;;12.38;6.18;;;;;;;17.74;53.90;101989.28;4910717;28;114067;-68
2022/06/13 04:51:16;;;;;;;14.27;7.00;;;;;;;17.75;54.05;101985.69;4909070;28;124283;-68
2022/06/13 04:53:52;;;;;;;15.25;6.60;;;;;;;17.76;53.96;101988.25;4924298;28;124613;-68
2022/06/13 04:56:21;;;;;;;13.48;6.22;;;;;;;17.80;54.05;101986.25;4910735;28;114004;-68
2022/06/13 04:58:50;;;;;;;14.25;6.45;;;;;;;17.85;54.13;101981.53;4913816;28;114324;-68
2022/06/13 05:01:25;;;;;;;14.27;6.85;;;;;;;17.89;54.28;101983.09;4901622;28;124664;-68
2022/06/13 05:03:55;;;;;;;14.40;6.85;;;;;;;17.94;54.13;101986.38;4915276;28;123545;-68
2022/06/13 05:06:36;;;;;;;18.27;7.05;;;;;;;17.98;54.27;101977.19;4913143;28;115565;-68
2022/06/13 05:09:16;;;;;;;13.70;6.85;;;;;;;18.03;54.27;101980.47;4913068;28;114942;-68
2022/06/13 05:11:46;;;;;;;16.08;7.03;;;;;;;18.07;54.42;101987.38;4904661;28;123914;-68
2022/06/13 05:14:18;;;;;;;16.70;7.07;;;;;;;18.09;54.38;101985.47;4894276;28;122747;-68
2022/06/13 05:16:51;;;;;;;14.68;6.47;;;;;;;18.15;54.36;101986.06;4912557;28;113961;-68
2022/06/13 05:19:43;;;;;;;14.75;6.70;;;;;;;18.16;54.38;101986.00;4912514;28;114345;-68
2022/06/13 05:22:39;;;;;;;17.80;6.75;;;;;;;18.22;54.34;101992.81;4904621;28;123856;-68
2022/06/13 05:25:10;;;;;;;17.65;7.38;;;;;;;18.28;54.49;102005.84;4894182;28;124128;-68
2022/06/13 05:27:37;;;;;;;16.15;6.80;;;;;;;18.32;54.42;102012.75;4910118;28;114031;-67
2022/06/13 05:30:05;;;;;;;16.08;6.85;;;;;;;18.34;54.52;102002.78;4914883;28;113870;-67
2022/06/13 05:32:33;;;;;;;13.73;6.88;;;;;;;18.38;54.66;102006.16;4914424;28;124096;-67
2022/06/13 05:35:02;;;;;;;13.00;6.97;;;;;;;18.44;54.77;102006.69;4911675;28;124134;-68
2022/06/13 05:37:30;;;;;;;17.10;6.75;;;;;;;18.51;54.84;102003.63;4903056;28;114375;-68
2022/06/13 05:39:57;;;;;;;15.70;7.10;;;;;;;18.57;54.84;102003.25;4909606;28;114156;-68
2022/06/13 05:42:27;;;;;;;14.02;6.93;;;;;;;18.64;55.04;102007.28;4902991;28;124410;-68
2022/06/13 05:44:54;;;;;;;16.13;7.18;;;;;;;18.72;54.97;102010.34;4901980;28;123808;-69
2022/06/13 05:47:21;;;;;;;13.60;6.93;;;;;;;18.82;55.10;102000.84;4914784;28;114117;-68
2022/06/13 05:49:48;;;;;;;16.90;6.72;;;;;;;18.92;54.99;102011.00;4901573;28;114791;-68
2022/06/13 05:52:16;;;;;;;20.95;6.68;;;;;;;19.02;55.01;102014.84;4892825;28;124036;-68
2022/06/13 05:54:43;;;;;;;13.73;6.47;;;;;;;19.11;54.96;102022.31;4905947;28;124786;-68
2022/06/13 05:57:10;;;;;;;17.05;6.68;;;;;;;19.22;54.98;102019.84;4910977;28;115038;-69
2022/06/13 05:59:37;;;;;;;13.20;6.32;;;;;;;19.32;54.81;102013.88;4913353;28;115226;-68
2022/06/13 06:02:05;;;;;;;16.83;6.35;;;;;;;19.43;54.80;102022.13;4898494;28;124486;-67
2022/06/13 06:04:32;;;;;;;16.38;5.97;;;;;;;19.51;54.74;102014.41;4908829;28;125344;-68
2022/06/13 06:06:59;;;;;;;15.93;6.47;;;;;;;19.60;54.28;102029.97;4911797;28;114114;-68
2022/06/13 06:09:26;;;;;;;13.30;6.30;;;;;;;19.69;54.08;102027.66;4911298;28;114163;-68
2022/06/13 06:11:53;;;;;;;13.82;5.82;;;;;;;19.76;54.35;102034.38;4911528;28;124760;-68
2022/06/13 06:14:20;;;;;;;14.15;6.15;;;;;;;19.86;54.18;102040.88;4913919;28;123684;-69
2022/06/13 06:16:48;;;;;;;14.93;6.13;;;;;;;19.98;53.96;102040.06;4914590;28;114173;-68
2022/06/13 06:19:15;;;;;;;15.82;6.13;;;;;;;20.09;53.84;102049.28;4912267;28;113171;-68
2022/06/13 06:21:42;;;;;;;14.05;5.90;;;;;;;20.17;53.69;102036.16;4909248;28;124793;-68
2022/06/13 06:24:09;;;;;;;11.68;5.97;;;;;;;20.28;53.48;102044.38;4911158;28;124069;-68
2022/06/13 06:26:36;;;;;;;17.88;5.93;;;;;;;20.38;53.35;102048.19;4907743;28;114118;-68
2022/06/13 06:29:03;;;;;;;12.93;5.40;;;;;;;20.48;53.12;102047.59;4905810;28;113822;-68
2022/06/13 06:31:32;;;;;;;11.20;5.30;;;;;;;20.55;52.72;102048.88;4913357;28;124276;-68
2022/06/13 06:33:59;;;;;;;13.82;5.18;;;;;;;20.63;52.49;102051.94;4910990;28;124249;-68
2022/06/13 06:36:27;;;;;;;13.85;5.38;;;;;;;20.67;52.39;102058.84;4912414;28;114531;-67
2022/06/13 06:38:56;;;;;;;12.20;4.95;;;;;;;20.68;52.24;102060.59;4903256;28;114065;-67
2022/06/13 06:41:25;;;;;;;11.48;4.60;;;;;;;20.70;52.01;102064.03;4908058;28;123982;-67
2022/06/13 06:43:52;;;;;;;10.93;4.85;;;;;;;20.73;52.21;102069.19;4903082;28;124308;-68
2022/06/13 06:46:20;;;;;;;10.45;4.45;;;;;;;20.80;51.92;102070.50;4910168;28;115322;-68
2022/06/13 06:48:47;;;;;;;9.02;4.28;;;;;;;20.84;51.50;102064.91;4904424;28;114948;-68
2022/06/13 06:51:15;;;;;;;10.13;4.20;;;;;;;20.87;51.26;102064.66;4904506;28;124041;-68
2022/06/13 07:02:00;;;;;;;12.13;4.10;;;;;;;20.86;50.54;102079.13;4912736;28;123974;-68
2022/06/13 07:04:27;;;;;;;8.57;3.25;;;;;;;20.87;50.25;102080.81;4899669;28;124283;-68
2022/06/13 07:06:54;;;;;;;10.00;3.00;;;;;;;20.85;49.86;102080.97;4911150;28;114541;-68
2022/06/13 07:09:21;;;;;;;9.07;2.90;;;;;;;20.87;49.57;102086.22;4911308;28;112885;-68
2022/06/13 07:11:55;;;;;;;8.63;3.25;;;;;;;20.90;49.59;102086.00;4902641;28;124860;-68
2022/06/13 07:14:26;;;;;;;8.18;3.35;;;;;;;20.97;49.43;102076.56;4894537;28;123948;-68
2022/06/13 07:16:56;;;;;;;10.45;3.20;;;;;;;21.05;49.40;102082.25;4909442;28;113057;-66
2022/06/13 07:19:24;;;;;;;8.38;3.08;;;;;;;21.11;49.32;102079.13;4908602;28;113946;-67
2022/06/13 07:21:51;;;;;;;11.13;2.80;;;;;;;21.20;48.85;102075.78;4911634;28;124051;-67
2022/06/13 07:24:20;;;;;;;6.53;2.92;;;;;;;21.31;48.30;102079.56;4911829;28;123750;-66
2022/06/13 07:26:49;;;;;;;7.93;2.33;;;;;;;21.35;48.00;102086.47;4913017;28;114485;-67
2022/06/13 07:29:16;;;;;;;7.40;2.55;;;;;;;21.40;48.02;102078.91;4912093;28;114398;-66
2022/06/13 07:31:48;;;;;;;8.27;2.13;;;;;;;21.53;47.93;102079.78;4910501;28;124823;-66
2022/06/13 07:34:19;;;;;;;9.48;2.72;;;;;;;21.65;47.89;102087.97;4910368;28;123450;-66
2022/06/13 07:36:49;;;;;;;8.00;2.30;;;;;;;21.69;47.42;102094.88;4910493;28;115095;-67
2022/06/13 07:39:16;;;;;;;5.25;1.88;;;;;;;21.69;46.80;102102.94;4911871;28;114671;-67
2022/06/13 07:41:44;;;;;;;5.22;1.90;;;;;;;21.63;46.27;102100.69;4911714;28;123408;-67
2022/06/13 07:44:38;;;;;;;3.65;1.50;;;;;;;21.61;45.95;102102.66;4913549;28;124237;-67
2022/06/13 07:47:06;;;;;;;6.13;1.58;;;;;;;21.68;46.46;102093.13;4914178;28;113550;-66
2022/06/13 07:49:33;;;;;;;5.63;1.50;;;;;;;21.80;46.08;102097.63;4910058;28;114144;-67
2022/06/13 07:52:00;;;;;;;4.35;1.67;;;;;;;21.92;45.71;102102.13;4910671;28;124101;-67
2022/06/13 07:54:27;;;;;;;3.45;1.33;;;;;;;22.05;45.36;102101.22;4913329;28;123700;-66
2022/06/13 07:56:54;;;;;;;5.78;1.58;;;;;;;22.13;45.00;102098.81;4928317;28;113961;-67
2022/06/13 07:59:27;;;;;;;4.78;1.80;;;;;;;22.22;44.95;102098.13;4907039;28;112962;-66
2022/06/13 08:01:57;;;;;;;7.88;1.75;;;;;;;22.31;45.14;102108.28;4889683;28;124138;-67
2022/06/13 08:04:25;;;;;;;4.95;1.75;;;;;;;22.46;45.06;102116.22;4907622;28;123818;-67
2022/06/13 08:07:16;;;;;;;4.00;1.55;;;;;;;22.61;44.36;102112.34;4913380;28;114207;-67
2022/06/13 08:09:43;;;;;;;4.35;1.40;;;;;;;22.71;44.48;102116.06;4911100;28;112970;-67
2022/06/13 08:12:14;;;;;;;4.72;1.55;;;;;;;22.82;44.18;102117.09;4911716;28;124032;-66
2022/06/13 08:14:45;;;;;;;6.50;1.48;;;;;;;22.94;44.18;102124.25;4896563;28;124206;-66
2022/06/13 08:17:14;;;;;;;4.28;1.60;;;;;;;23.03;43.97;102131.66;4910465;28;114683;-67
2022/06/13 08:19:41;;;;;;;3.60;1.40;;;;;;;23.12;43.99;102130.97;4911313;28;114261;-67
2022/06/13 08:22:08;;;;;;;5.60;1.42;;;;;;;23.17;43.30;102132.44;4910817;28;123854;-66
2022/06/13 08:24:42;;;;;;;3.78;1.40;;;;;;;23.19;42.88;102135.88;4911131;28;124309;-66
2022/06/13 08:27:09;;;;;;;5.53;1.40;;;;;;;23.20;42.85;102143.00;4909948;28;115531;-67
2022/06/13 08:29:36;;;;;;;4.78;1.50;;;;;;;23.16;42.35;102144.25;4911208;28;115079;-67
2022/06/13 08:32:04;;;;;;;4.57;1.80;;;;;;;23.08;42.19;102140.28;4908811;28;124385;-67
2022/06/13 08:34:32;;;;;;;4.00;1.48;;;;;;;23.03;42.42;102137.06;4912822;28;123918;-66
2022/06/13 08:36:59;;;;;;;5.03;1.30;;;;;;;23.04;42.51;102144.22;4913749;28;114478;-66
2022/06/13 08:39:26;;;;;;;5.97;1.60;;;;;;;23.09;42.54;102142.03;4914658;28;114059;-67
2022/06/13 08:41:58;;;;;;;3.60;1.63;;;;;;;23.15;42.25;102145.22;4896046;28;124768;-66
2022/06/13 08:44:41;;;;;;;5.00;1.40;;;;;;;23.23;42.78;102138.22;4894436;28;124802;-67
2022/06/13 08:47:17;;;;;;;4.90;1.40;;;;;;;23.31;42.62;102145.75;4902303;28;114223;-67
2022/06/13 08:49:56;;;;;;;4.65;1.80;;;;;;;23.39;42.86;102148.69;4913622;28;112907;-68
2022/06/13 08:52:41;;;;;;;4.38;1.40;;;;;;;23.44;42.32;102146.50;4912648;28;124018;-67
2022/06/13 08:55:10;;;;;;;4.18;1.58;;;;;;;23.41;41.95;102162.94;4915958;28;124040;-67
2022/06/13 08:57:45;;;;;;;5.10;1.52;;;;;;;23.31;41.24;102151.16;4909316;28;114711;-66
2022/06/13 09:00:21;;;;;;;5.90;1.40;;;;;;;23.19;41.26;102157.50;4896637;28;113942;-67
2022/06/13 09:02:54;;;;;;;4.38;1.50;;;;;;;23.08;41.24;102172.72;4911611;28;123852;-67
2022/06/13 09:05:33;;;;;;;7.65;1.67;;;;;;;22.93;41.45;102173.88;4915376;28;123898;-67
2022/06/13 09:08:31;;;;;;;4.85;1.73;;;;;;;22.78;41.62;102169.63;4911228;28;115266;-67
2022/06/13 09:11:06;;;;;;;3.17;1.30;;;;;;;22.70;41.81;102162.97;4912619;28;113943;-68
2022/06/13 09:14:02;;;;;;;4.13;1.27;;;;;;;22.63;41.77;102161.72;4911633;28;125081;-68
2022/06/13 09:16:35;;;;;;;3.35;1.00;;;;;;;22.61;41.52;102174.47;4913417;28;123791;-68
2022/06/13 09:19:15;;;;;;;4.88;1.08;;;;;;;22.59;41.68;102176.41;4912900;28;114023;-68
2022/06/13 09:22:08;;;;;;;2.95;1.02;;;;;;;22.61;41.65;102169.06;4912669;28;115199;-68
2022/06/13 09:24:46;;;;;;;1.95;0.80;;;;;;;22.65;41.48;102173.25;4910726;28;124711;-68
2022/06/13 09:27:18;;;;;;;2.97;0.80;;;;;;;22.72;41.74;102171.81;4902817;28;123770;-68
2022/06/13 09:30:04;;;;;;;3.58;0.80;;;;;;;22.85;41.56;102173.56;4911051;28;115294;-68
2022/06/13 09:32:41;;;;;;;4.47;0.75;;;;;;;22.94;41.09;102175.56;4899016;28;113858;-68
2022/06/13 09:35:15;;;;;;;2.33;0.70;;;;;;;22.99;40.83;102176.09;4899562;28;123969;-68
2022/06/13 09:37:53;;;;;;;3.65;0.85;;;;;;;23.06;40.91;102173.81;4910330;28;123670;-68
2022/06/13 09:40:47;;;;;;;4.20;0.77;;;;;;;23.16;41.04;102179.38;4914311;28;114140;-68
2022/06/13 09:43:36;;;;;;;1.90;0.70;;;;;;;23.27;41.04;102182.09;4896041;28;113966;-68
2022/06/13 09:46:15;;;;;;;3.03;0.85;;;;;;;23.35;40.50;102190.47;4910804;28;123874;-67
2022/06/13 09:49:10;;;;;;;2.53;0.60;;;;;;;23.38;40.25;102184.84;4900147;28;124395;-68
2022/06/13 09:51:52;;;;;;;4.22;0.80;;;;;;;23.36;39.95;102192.22;4913030;28;114951;-67
2022/06/13 09:54:38;;;;;;;1.90;0.90;;;;;;;23.35;40.07;102195.03;4904482;28;114009;-67
2022/06/13 09:57:22;;;;;;;4.15;0.80;;;;;;;23.30;40.00;102187.25;4906373;28;124417;-67
2022/06/13 10:00:01;;;;;;;4.10;0.90;;;;;;;23.31;40.03;102189.00;4902055;28;124689;-66
2022/06/13 10:02:46;;;;;;;3.67;0.70;;;;;;;23.36;39.88;102194.91;4915281;28;115002;-67
2022/06/13 10:05:45;;;;;;;3.25;0.80;;;;;;;23.40;39.68;102199.09;4902735;28;114566;-68
2022/06/13 10:08:44;;;;;;;2.60;0.90;;;;;;;23.41;39.43;102200.81;4891766;28;124107;-67
2022/06/13 10:11:39;;;;;;;2.78;0.60;;;;;;;23.37;38.92;102199.31;4911692;28;123671;-67
2022/06/13 10:14:20;;;;;;;3.33;0.80;;;;;;;23.30;38.98;102208.88;4898615;28;115071;-67
2022/06/13 10:17:08;;;;;;;3.03;0.93;;;;;;;23.32;39.55;102190.72;4901095;28;114817;-67
2022/06/13 10:19:43;;;;;;;3.28;0.82;;;;;;;23.33;39.49;102197.84;4912363;28;123768;-67
2022/06/13 10:22:18;;;;;;;;;;;;;;;23.34;40.26;102199.59;4927117;28;123953;-67
2022/06/13 10:24:58;;;;;;;3.38;0.80;;;;;;;23.39;39.37;102194.66;4911593;28;113815;-67
2022/06/13 10:27:40;;;;;;;2.78;0.60;;;;;;;23.37;38.64;102204.72;4912121;28;114950;-67
2022/06/13 10:30:17;;;;;;;3.22;0.85;;;;;;;23.32;38.25;102215.06;4907511;28;123978;-67
2022/06/13 10:33:16;;;;;;;3.08;0.80;;;;;;;23.23;38.76;102218.47;4908787;28;123883;-67
2022/06/13 10:35:49;;;;;;;3.58;0.80;;;;;;;23.24;38.68;102217.47;4904144;28;114608;-67
2022/06/13 10:38:22;;;;;;;4.15;0.85;;;;;;;23.26;38.56;102220.91;4911668;28;114182;-67
2022/06/13 10:40:50;;;;;;;2.88;0.80;;;;;;;23.30;38.55;102214.28;4910635;28;124090;-67
2022/06/13 10:43:18;;;;;;;2.50;0.80;;;;;;;23.33;38.90;102214.06;4898886;28;124083;-67
2022/06/13 10:45:46;;;;;;;2.88;0.80;;;;;;;23.40;38.72;102209.91;4911687;28;114127;-67
2022/06/13 10:48:19;;;;;;;2.55;0.90;;;;;;;23.47;38.89;102212.97;4899199;28;113919;-67
2022/06/13 10:50:53;;;;;;;3.28;0.80;;;;;;;23.52;38.25;102213.50;4912685;28;124647;-66
2022/06/13 10:53:42;;;;;;;1.08;0.70;;;;;;;23.57;38.41;102221.25;4913263;28;123674;-66
2022/06/13 10:56:19;;;;;;;8.80;0.90;;;;;;;23.61;37.91;102222.75;4907159;28;114091;-67
2022/06/13 10:58:49;;;;;;;2.35;0.70;;;;;;;23.61;38.00;102228.16;4911757;28;114211;-66
2022/06/13 11:01:22;;;;;;;2.10;0.85;;;;;;;23.65;38.24;102218.81;4907431;28;123892;-67
2022/06/13 11:04:16;;;;;;;2.28;0.85;;;;;;;23.66;38.04;102225.94;4908332;28;123488;-67
2022/06/13 11:06:48;;;;;;;2.72;0.80;;;;;;;23.61;37.73;102225.44;4910807;28;115122;-67
2022/06/13 11:09:30;;;;;;;1.67;0.73;;;;;;;23.58;37.76;102222.97;4910746;28;115211;-67
2022/06/13 11:12:01;;;;;;;2.33;0.80;;;;;;;23.56;37.76;102236.59;4912921;28;124697;-66
2022/06/13 11:22:37;;;;;;;2.42;0.75;;;;;;;23.48;37.64;102226.38;4910818;28;124095;-66
2022/06/13 11:23:15;;;;;;;1.75;1.00;;;;;;;23.25;37.87;102232.72;4911249;28;124023;-66
2022/06/13 11:25:42;;;;;;;6.15;1.17;;;;;;;23.23;38.26;102235.53;4909456;28;124192;-66
2022/06/13 11:28:14;;;;;;;1.98;0.63;;;;;;;23.28;38.50;102227.06;4910217;28;113765;-66
2022/06/13 11:30:47;;;;;;;5.18;0.90;;;;;;;23.38;38.40;102228.09;4912779;28;114021;-66
2022/06/13 11:33:37;;;;;;;3.35;0.90;;;;;;;23.50;38.88;102227.13;4927303;28;124753;-66
2022/06/13 11:36:16;;;;;;;2.45;0.80;;;;;;;23.64;38.33;102233.28;4910920;28;124219;-67
2022/06/13 11:38:51;;;;;;;2.67;1.13;;;;;;;23.73;38.37;102219.03;4910639;28;114506;-67
2022/06/13 11:41:41;;;;;;;1.45;0.70;;;;;;;23.78;38.14;102224.97;4912535;28;114167;-67
2022/06/13 11:44:15;;;;;;;2.67;0.90;;;;;;;23.84;37.98;102219.09;4900242;28;123858;-67
2022/06/13 11:46:53;;;;;;;3.45;1.10;;;;;;;23.84;37.98;102234.47;4911200;28;124013;-68
2022/06/13 11:49:35;;;;;;;2.83;0.90;;;;;;;23.76;37.62;102226.06;4911345;28;114348;-67
2022/06/13 11:52:11;;;;;;;1.42;0.70;;;;;;;23.63;36.98;102226.19;4911844;28;114488;-67
2022/06/13 11:54:52;;;;;;;2.10;0.82;;;;;;;23.49;37.05;102225.41;4911861;28;123508;-67
2022/06/13 11:57:28;;;;;;;5.05;1.08;;;;;;;23.43;37.42;102217.78;4909647;28;123780;-68
2022/06/13 12:00:04;;;;;;;3.33;0.90;;;;;;;23.44;37.73;102208.69;4892259;28;116218;-67
2022/06/13 12:02:50;;;;;;;1.50;0.90;;;;;;;23.50;37.82;102210.06;4909128;28;115334;-67
2022/06/13 12:05:19;;;;;;;;;;;;;;;23.50;38.14;102216.31;4908674;28;123428;-67
2022/06/13 12:07:52;;;;;;;2.25;0.93;;;;;;;23.49;37.09;102225.41;4905345;28;124061;-67